Time;durP1;ratioP1;P1;durP2;ratioP2;P2;SDS_P1;SDS_P2;PMS_P1;PMS_P2;Temp;Humidity;BMP_temperature;BMP_pressure;BME280_temperature;BME280_humidity;BME280_pressure;Samples;Min_cycle;Max_cycle;Signal;HPM_P1;HPM_P2
2022/09/30 00:01:33;;;;;;;18.23;12.18;;;;;;;7.55;100.00;99600.22;5114678;28;20047;-73
2022/09/30 00:04:00;;;;;;;16.08;11.23;;;;;;;7.53;100.00;99594.16;5120139;28;20051;-76
2022/09/30 00:06:28;;;;;;;18.63;11.77;;;;;;;7.51;100.00;99603.91;5123937;28;20092;-75
2022/09/30 00:08:56;;;;;;;15.35;11.50;;;;;;;7.44;100.00;99588.44;5119236;28;20047;-72
2022/09/30 00:11:29;;;;;;;20.85;11.88;;;;;;;7.48;100.00;99595.28;5112927;28;20057;-73
2022/09/30 00:13:57;;;;;;;17.52;11.57;;;;;;;7.51;100.00;99600.41;5112723;28;20476;-74
2022/09/30 00:16:27;;;;;;;17.27;11.60;;;;;;;7.41;100.00;99592.06;5114574;28;20048;-74
2022/09/30 00:18:55;;;;;;;17.35;11.25;;;;;;;7.46;100.00;99602.41;5114549;28;20056;-76
2022/09/30 00:21:22;;;;;;;17.73;11.57;;;;;;;7.35;100.00;99590.59;5114695;28;20101;-76
2022/09/30 00:23:49;;;;;;;18.60;12.18;;;;;;;7.37;100.00;99591.41;5113327;28;20050;-76
2022/09/30 00:26:19;;;;;;;14.57;10.80;;;;;;;7.40;100.00;99604.41;5114469;28;20476;-76
2022/09/30 00:28:50;;;;;;;17.33;11.70;;;;;;;7.35;100.00;99600.28;5105132;28;20059;-76
2022/09/30 00:31:18;;;;;;;17.05;12.13;;;;;;;7.34;100.00;99598.56;5113538;28;20062;-72
2022/09/30 00:36:44;;;;;;;17.00;11.93;;;;;;;7.35;100.00;99595.03;5113653;28;20052;-74
2022/09/30 00:39:20;;;;;;;18.23;12.18;;;;;;;7.32;100.00;99603.91;5105423;28;20065;-77
2022/09/30 00:41:52;;;;;;;18.27;12.43;;;;;;;7.30;100.00;99618.06;5114118;28;20090;-77
2022/09/30 00:44:43;;;;;;;16.05;11.45;;;;;;;7.26;100.00;99619.97;5112813;28;20051;-76
2022/09/30 00:47:34;;;;;;;18.50;11.65;;;;;;;7.23;100.00;99611.41;5113916;28;20055;-73
2022/09/30 00:50:24;;;;;;;20.20;12.25;;;;;;;7.19;100.00;99615.94;5112412;28;20491;-76
2022/09/30 00:52:59;;;;;;;17.73;11.85;;;;;;;7.26;100.00;99622.63;5112961;28;20062;-71
2022/09/30 00:55:38;;;;;;;17.02;11.52;;;;;;;7.26;100.00;99619.13;5112949;28;20075;-76
2022/09/30 00:58:08;;;;;;;20.08;12.45;;;;;;;7.23;100.00;99627.19;5112456;28;20075;-75
2022/09/30 01:00:35;;;;;;;17.10;12.70;;;;;;;7.11;100.00;99601.41;5111918;28;20051;-74
2022/09/30 01:03:03;;;;;;;17.42;11.80;;;;;;;7.30;100.00;99624.19;5112759;28;20048;-73
2022/09/30 01:05:33;;;;;;;14.63;11.63;;;;;;;7.28;100.00;99620.78;5112495;28;20120;-72
2022/09/30 01:08:02;;;;;;;16.42;12.38;;;;;;;7.29;100.00;99621.63;5111581;28;20060;-77
2022/09/30 01:10:29;;;;;;;15.38;12.15;;;;;;;7.10;100.00;99590.00;5112735;28;20078;-72
2022/09/30 01:12:56;;;;;;;16.38;11.55;;;;;;;7.09;100.00;99592.72;5112921;28;20048;-75
2022/09/30 01:15:34;;;;;;;16.42;11.55;;;;;;;7.21;100.00;99622.00;5112084;28;20068;-72
2022/09/30 01:18:22;;;;;;;17.90;12.52;;;;;;;7.18;100.00;99624.75;5104936;28;20514;-73
2022/09/30 01:21:09;;;;;;;16.00;11.55;;;;;;;7.10;100.00;99620.75;5111367;28;20160;-74
2022/09/30 01:23:58;;;;;;;20.58;12.65;;;;;;;7.12;100.00;99614.50;5112731;28;20055;-74
2022/09/30 01:27:03;;;;;;;16.67;12.10;;;;;;;7.20;100.00;99632.59;5111889;28;20480;-73
2022/09/30 01:29:30;;;;;;;16.13;11.45;;;;;;;7.09;100.00;99614.63;5102989;28;20136;-71
2022/09/30 01:32:11;;;;;;;13.57;10.55;;;;;;;7.18;100.00;99624.75;5109417;28;20126;-77
2022/09/30 01:35:10;;;;;;;16.13;11.63;;;;;;;7.09;100.00;99630.41;5112146;28;20130;-72
2022/09/30 01:38:05;;;;;;;17.98;11.63;;;;;;;6.95;100.00;99640.72;5108138;28;20052;-74
2022/09/30 01:41:04;;;;;;;17.65;11.70;;;;;;;6.86;100.00;99643.75;5107175;28;20411;-74
2022/09/30 01:43:59;;;;;;;17.48;11.82;;;;;;;6.79;100.00;99640.53;5111239;28;20407;-73
2022/09/30 01:46:43;;;;;;;18.75;12.52;;;;;;;6.74;100.00;99639.91;5109586;28;20050;-75
2022/09/30 01:49:09;;;;;;;17.70;12.13;;;;;;;6.55;100.00;99618.78;5106667;28;20036;-74
2022/09/30 01:51:57;;;;;;;17.05;12.48;;;;;;;6.65;100.00;99643.75;5111785;28;20082;-75
2022/09/30 01:54:33;;;;;;;16.83;11.70;;;;;;;6.46;100.00;99619.16;5112772;28;20047;-72
2022/09/30 01:57:10;;;;;;;19.90;11.85;;;;;;;6.63;100.00;99640.34;5112051;28;20048;-73
2022/09/30 01:59:49;;;;;;;17.45;11.43;;;;;;;6.74;100.00;99641.66;5111897;28;20126;-75
2022/09/30 02:02:24;;;;;;;17.98;12.35;;;;;;;6.63;100.00;99629.81;5112413;28;20055;-75
2022/09/30 02:04:56;;;;;;;20.48;13.10;;;;;;;6.56;100.00;99643.31;5093029;28;20359;-74
2022/09/30 02:07:30;;;;;;;18.55;11.90;;;;;;;6.55;100.00;99637.19;5111524;28;20123;-76
2022/09/30 02:10:21;;;;;;;16.85;11.85;;;;;;;6.57;100.00;99642.38;5111904;28;20086;-76
2022/09/30 02:12:56;;;;;;;17.67;12.40;;;;;;;6.47;100.00;99646.31;5111907;28;20051;-75
2022/09/30 02:15:29;;;;;;;18.40;12.18;;;;;;;6.44;100.00;99651.72;5112567;28;20499;-75
2022/09/30 02:18:06;;;;;;;16.80;11.80;;;;;;;6.40;100.00;99653.63;5111727;28;20047;-76
2022/09/30 02:20:37;;;;;;;19.52;12.68;;;;;;;6.23;100.00;99621.91;5109414;28;20047;-74
2022/09/30 02:23:11;;;;;;;19.52;12.82;;;;;;;6.32;100.00;99642.53;5111516;28;20054;-76
2022/09/30 02:25:46;;;;;;;17.20;12.60;;;;;;;6.39;100.00;99657.16;5111466;28;20048;-77
2022/09/30 02:28:21;;;;;;;16.33;12.20;;;;;;;6.37;100.00;99648.47;5104335;28;20043;-75
2022/09/30 02:30:52;;;;;;;17.05;11.90;;;;;;;6.39;100.00;99644.00;5111359;28;20091;-77
2022/09/30 02:33:25;;;;;;;18.58;12.55;;;;;;;6.41;100.00;99651.84;5111473;28;20058;-76
2022/09/30 02:35:57;;;;;;;16.02;11.80;;;;;;;6.24;100.00;99629.75;5111924;28;20052;-76
2022/09/30 02:38:30;;;;;;;14.80;12.10;;;;;;;6.35;100.00;99647.69;5109735;28;20047;-75
2022/09/30 02:41:07;;;;;;;15.98;12.15;;;;;;;6.34;100.00;99654.72;5109574;28;20044;-76
2022/09/30 02:43:34;;;;;;;17.73;12.75;;;;;;;6.33;100.00;99649.53;5110307;28;20055;-74
2022/09/30 02:46:24;;;;;;;22.60;13.30;;;;;;;6.24;100.00;99656.03;5112253;28;20048;-76
2022/09/30 02:49:01;;;;;;;20.58;13.35;;;;;;;6.20;100.00;99661.47;5111945;28;20052;-76
2022/09/30 02:51:41;;;;;;;17.67;12.85;;;;;;;6.15;100.00;99671.28;5111835;28;20077;-77
2022/09/30 02:54:31;;;;;;;23.02;12.52;;;;;;;6.11;100.00;99675.84;5094962;28;20138;-75
2022/09/30 02:57:25;;;;;;;16.15;11.63;;;;;;;6.11;100.00;99669.72;5103651;28;20047;-72
2022/09/30 02:59:52;;;;;;;19.30;12.27;;;;;;;6.11;100.00;99680.25;5108342;28;20384;-73
2022/09/30 03:02:19;;;;;;;17.23;12.32;;;;;;;6.08;100.00;99683.00;5111057;28;20092;-74
2022/09/30 03:04:49;;;;;;;17.85;12.13;;;;;;;6.10;100.00;99689.06;5111878;28;20499;-75
2022/09/30 03:07:17;;;;;;;15.57;11.70;;;;;;;6.10;100.00;99691.69;5111661;28;20051;-73
2022/09/30 03:09:44;;;;;;;14.77;11.27;;;;;;;6.09;100.00;99692.59;5111867;28;20116;-75
2022/09/30 03:12:42;;;;;;;20.90;11.88;;;;;;;6.10;100.00;99699.56;5104251;28;20105;-76
2022/09/30 03:15:19;;;;;;;21.42;12.05;;;;;;;5.96;100.00;99665.94;5110728;28;20499;-71
2022/09/30 03:18:13;;;;;;;16.50;11.50;;;;;;;6.12;100.00;99695.09;5110515;28;20083;-73
2022/09/30 03:21:06;;;;;;;16.33;11.38;;;;;;;6.05;100.00;99691.84;5109592;28;20040;-72
2022/09/30 03:24:07;;;;;;;16.23;12.05;;;;;;;6.01;100.00;99689.41;5107062;28;20151;-73
2022/09/30 03:26:47;;;;;;;14.73;11.75;;;;;;;5.85;100.00;99668.94;5072292;28;20135;-78
2022/09/30 03:29:34;;;;;;;17.50;11.05;;;;;;;6.06;100.00;99703.22;5109953;28;20104;-74
2022/09/30 03:32:39;;;;;;;15.13;11.20;;;;;;;6.04;100.00;99705.06;5110543;28;20070;-73
2022/09/30 03:35:26;;;;;;;16.35;11.15;;;;;;;5.82;100.00;99671.72;5110694;28;20055;-75
2022/09/30 03:38:14;;;;;;;16.15;11.50;;;;;;;5.95;100.00;99701.03;5110705;28;20057;-76
2022/09/30 03:41:10;;;;;;;18.58;11.90;;;;;;;5.89;100.00;99694.22;5110733;28;20059;-79
2022/09/30 03:43:52;;;;;;;16.45;11.65;;;;;;;5.73;100.00;99681.72;5092048;28;20051;-78
2022/09/30 03:46:30;;;;;;;18.65;12.00;;;;;;;5.88;100.00;99703.03;5105842;28;20054;-76
2022/09/30 03:49:00;;;;;;;17.90;12.30;;;;;;;5.86;100.00;99701.34;5109458;28;20047;-75
2022/09/30 03:51:28;;;;;;;18.60;12.70;;;;;;;5.85;100.00;99710.13;5110251;28;20048;-76
2022/09/30 03:53:57;;;;;;;17.67;13.13;;;;;;;5.80;100.00;99707.69;5110294;28;20135;-76
2022/09/30 03:56:27;;;;;;;16.98;12.25;;;;;;;5.75;100.00;99703.53;5109814;28;20139;-77
2022/09/30 03:58:55;;;;;;;16.10;12.77;;;;;;;5.55;100.00;99676.25;5110341;28;20112;-73
2022/09/30 04:01:22;;;;;;;19.25;13.02;;;;;;;5.71;100.00;99699.28;5113990;28;20058;-77
2022/09/30 04:03:51;;;;;;;17.50;12.80;;;;;;;5.71;100.00;99700.16;5112874;28;20044;-76
2022/09/30 04:06:20;;;;;;;17.23;13.05;;;;;;;5.66;100.00;99707.38;5113822;28;20437;-73
2022/09/30 04:08:47;;;;;;;20.98;13.27;;;;;;;5.65;100.00;99716.16;5113899;28;20050;-70
2022/09/30 04:11:14;;;;;;;18.00;12.38;;;;;;;5.56;100.00;99706.84;5114623;28;20419;-77
2022/09/30 04:13:41;;;;;;;19.65;13.23;;;;;;;5.63;100.00;99725.88;5114283;28;20089;-76
2022/09/30 04:16:07;;;;;;;16.90;12.48;;;;;;;5.64;100.00;99731.06;5113616;28;20040;-75
2022/09/30 04:18:38;;;;;;;14.98;12.23;;;;;;;5.72;100.00;99730.75;5113489;28;20051;-74
2022/09/30 04:21:06;;;;;;;21.60;12.60;;;;;;;5.73;100.00;99731.63;5112776;28;20355;-77
2022/09/30 04:23:34;;;;;;;18.40;12.43;;;;;;;5.65;100.00;99731.94;5113971;28;20140;-76
2022/09/30 04:26:01;;;;;;;17.73;12.85;;;;;;;5.61;100.00;99740.81;5108234;28;20048;-79
2022/09/30 04:28:28;;;;;;;16.00;12.40;;;;;;;5.57;100.00;99741.84;5114436;28;20047;-75
2022/09/30 04:30:58;;;;;;;15.48;11.48;;;;;;;5.51;100.00;99736.84;5113785;28;20036;-76
2022/09/30 04:33:25;;;;;;;15.82;11.13;;;;;;;5.48;100.00;99737.81;5114233;28;20094;-75
2022/09/30 04:35:56;;;;;;;17.35;11.95;;;;;;;5.42;100.00;99738.00;5109661;28;20039;-76
2022/09/30 04:38:23;;;;;;;18.00;12.20;;;;;;;5.35;100.00;99733.91;5112492;28;20047;-73
2022/09/30 04:40:51;;;;;;;17.38;11.95;;;;;;;5.47;100.00;99746.59;5113141;28;20108;-77
2022/09/30 04:43:18;;;;;;;17.90;12.02;;;;;;;5.50;100.00;99741.22;5113634;28;20093;-79
2022/09/30 04:45:45;;;;;;;20.85;12.02;;;;;;;5.52;100.00;99749.88;5113100;28;20051;-75
2022/09/30 04:48:12;;;;;;;15.50;11.48;;;;;;;5.53;100.00;99745.50;5113053;28;20066;-77
2022/09/30 04:50:40;;;;;;;22.25;11.18;;;;;;;5.55;100.00;99756.78;5106558;28;20092;-74
2022/09/30 04:53:08;;;;;;;16.23;11.57;;;;;;;5.51;100.00;99752.59;5112898;28;20081;-77
2022/09/30 04:55:35;;;;;;;15.70;11.20;;;;;;;5.52;100.00;99751.66;5113589;28;20059;-77
2022/09/30 04:58:01;;;;;;;18.08;11.13;;;;;;;5.37;100.00;99731.19;5111507;28;20492;-74
2022/09/30 05:00:28;;;;;;;19.90;11.68;;;;;;;5.50;100.00;99758.75;5112441;28;20047;-76
2022/09/30 05:02:54;;;;;;;19.55;12.02;;;;;;;5.45;100.00;99768.56;5112749;28;20040;-76
2022/09/30 05:05:21;;;;;;;14.35;11.57;;;;;;;5.40;100.00;99765.22;5112592;28;20403;-77
2022/09/30 05:07:48;;;;;;;15.40;11.18;;;;;;;5.42;100.00;99766.91;5110502;28;20054;-77
2022/09/30 05:10:15;;;;;;;16.83;11.77;;;;;;;5.43;100.00;99773.88;5112847;28;20032;-74
2022/09/30 05:12:41;;;;;;;15.60;12.60;;;;;;;5.29;100.00;99742.00;5113084;28;20130;-77
2022/09/30 05:15:09;;;;;;;16.45;12.05;;;;;;;5.45;100.00;99766.78;5112460;28;20050;-71
2022/09/30 05:17:36;;;;;;;16.20;12.40;;;;;;;5.43;100.00;99773.88;5112810;28;20048;-75
2022/09/30 05:20:04;;;;;;;18.65;12.45;;;;;;;5.42;100.00;99781.78;5112171;28;20052;-75
2022/09/30 05:22:30;;;;;;;16.33;12.32;;;;;;;5.42;100.00;99789.66;5112292;28;20047;-78
2022/09/30 05:24:57;;;;;;;17.60;12.73;;;;;;;5.37;100.00;99786.34;5106709;27;20456;-72
2022/09/30 05:27:23;;;;;;;18.48;12.88;;;;;;;5.42;100.00;99782.66;5113237;28;20087;-73
2022/09/30 05:29:50;;;;;;;19.08;13.02;;;;;;;5.42;100.00;99784.41;5097949;28;20078;-76
2022/09/30 05:32:17;;;;;;;17.95;13.07;;;;;;;5.44;100.00;99787.84;5112225;28;20065;-76
2022/09/30 05:34:43;;;;;;;17.08;13.02;;;;;;;5.47;100.00;99793.84;5112893;28;20112;-74
2022/09/30 05:37:10;;;;;;;18.27;13.27;;;;;;;5.48;100.00;99799.97;5111428;28;20074;-76
2022/09/30 05:39:37;;;;;;;21.13;13.48;;;;;;;5.47;100.00;99811.38;5113694;28;20123;-76
2022/09/30 05:42:03;;;;;;;15.70;12.80;;;;;;;5.48;100.00;99813.09;5101794;28;20051;-74
2022/09/30 05:44:30;;;;;;;18.27;13.18;;;;;;;5.44;100.00;99809.72;5112490;28;20582;-74
2022/09/30 05:46:58;;;;;;;17.50;12.82;;;;;;;5.50;100.00;99820.00;5112505;28;20082;-78
2022/09/30 05:49:25;;;;;;;18.83;13.45;;;;;;;5.52;100.00;99831.28;5112909;28;20039;-77
2022/09/30 05:51:52;;;;;;;18.08;13.43;;;;;;;5.59;100.00;99840.69;5112790;28;20096;-75
2022/09/30 05:54:19;;;;;;;16.65;12.75;;;;;;;5.58;100.00;99838.09;5112326;28;20094;-74
2022/09/30 05:56:45;;;;;;;18.23;12.60;;;;;;;5.60;100.00;99854.69;5110473;28;20057;-76
2022/09/30 05:59:12;;;;;;;18.67;12.93;;;;;;;5.53;100.00;99848.75;5112086;28;20063;-76
2022/09/30 06:01:39;;;;;;;19.25;12.80;;;;;;;5.59;100.00;99868.72;5112208;28;20134;-76
2022/09/30 06:04:05;;;;;;;15.77;11.57;;;;;;;5.44;100.00;99843.00;5112499;28;20072;-75
2022/09/30 06:06:32;;;;;;;16.48;11.82;;;;;;;5.55;100.00;99864.47;5111815;28;20240;-78
2022/09/30 06:08:59;;;;;;;19.95;11.55;;;;;;;5.57;100.00;99868.75;5112090;28;20120;-73
2022/09/30 06:11:25;;;;;;;13.95;11.23;;;;;;;5.58;100.00;99861.75;5111503;28;20124;-75
2022/09/30 06:13:52;;;;;;;16.55;11.32;;;;;;;5.60;100.00;99870.44;5110658;28;20051;-75
2022/09/30 06:16:19;;;;;;;18.92;11.25;;;;;;;5.64;100.00;99872.91;5108553;28;20107;-78
2022/09/30 06:18:45;;;;;;;17.67;10.32;;;;;;;5.69;100.00;99869.22;5100113;28;20534;-74
2022/09/30 06:21:14;;;;;;;17.63;11.52;;;;;;;5.68;100.00;99865.75;5110848;28;20480;-72
2022/09/30 06:23:41;;;;;;;17.83;11.50;;;;;;;5.58;100.00;99849.47;5107352;28;20495;-76
2022/09/30 06:26:10;;;;;;;18.80;12.57;;;;;;;5.74;100.00;99878.69;5111221;28;20512;-69
2022/09/30 06:28:37;;;;;;;16.77;11.73;;;;;;;5.74;100.00;99864.69;5108773;28;20052;-74
2022/09/30 06:31:05;;;;;;;17.35;11.38;;;;;;;5.70;100.00;99856.06;5098875;28;20530;-77
2022/09/30 06:33:32;;;;;;;21.63;11.88;;;;;;;5.93;100.00;99879.78;5110449;28;20052;-75
2022/09/30 06:36:03;;;;;;;18.42;11.32;;;;;;;5.93;100.00;99871.91;5110477;28;20580;-77
2022/09/30 06:38:31;;;;;;;17.67;11.63;;;;;;;6.04;100.00;99868.00;5111483;28;20438;-74
2022/09/30 06:40:59;;;;;;;20.58;11.77;;;;;;;6.08;100.00;99875.72;5095578;28;20047;-74
2022/09/30 06:43:27;;;;;;;14.95;11.07;;;;;;;6.08;100.00;99856.47;5111155;28;20461;-75
2022/09/30 06:45:54;;;;;;;15.30;10.85;;;;;;;6.21;100.00;99871.72;5108719;28;20055;-70
2022/09/30 06:48:37;;;;;;;14.63;11.00;;;;;;;6.37;100.00;99874.63;5106425;28;20047;-75
2022/09/30 06:51:05;;;;;;;18.85;11.30;;;;;;;6.54;100.00;99869.59;5110720;28;20503;-75
2022/09/30 06:53:33;;;;;;;16.20;11.38;;;;;;;6.76;100.00;99874.00;5111241;28;20487;-73
2022/09/30 06:56:00;;;;;;;20.30;11.93;;;;;;;7.08;100.00;99889.38;5109585;28;20082;-73
2022/09/30 06:58:26;;;;;;;13.30;10.65;;;;;;;7.41;100.00;99889.72;5111271;28;20075;-72
2022/09/30 07:01:02;;;;;;;14.65;10.98;;;;;;;7.70;100.00;99892.00;5111959;28;20040;-71
2022/09/30 07:03:34;;;;;;;16.30;10.50;;;;;;;8.00;100.00;99888.94;5111882;28;20047;-78
2022/09/30 07:06:03;;;;;;;13.38;10.05;;;;;;;8.26;100.00;99891.25;5112476;28;20100;-73
2022/09/30 07:08:32;;;;;;;14.80;10.55;;;;;;;8.55;100.00;99884.66;5112955;28;20044;-71
2022/09/30 07:11:01;;;;;;;12.68;9.85;;;;;;;8.74;100.00;99866.19;5112739;28;20048;-71
2022/09/30 07:13:27;;;;;;;14.18;9.73;;;;;;;9.20;97.60;99888.56;5111391;28;20069;-73
2022/09/30 07:15:55;;;;;;;14.02;9.23;;;;;;;9.54;93.62;99895.69;5110479;28;20112;-74
2022/09/30 07:18:23;;;;;;;12.18;9.88;;;;;;;9.76;91.98;99890.13;5109568;28;20070;-73
2022/09/30 07:20:51;;;;;;;15.65;9.80;;;;;;;9.92;89.07;99867.25;5106933;28;20131;-73
2022/09/30 07:23:18;;;;;;;13.00;9.85;;;;;;;10.30;88.17;99891.69;5109724;28;20043;-71
2022/09/30 07:25:54;;;;;;;11.43;9.23;;;;;;;10.56;87.01;99892.94;5110218;28;20040;-72
2022/09/30 07:28:26;;;;;;;12.23;9.00;;;;;;;10.71;84.36;99892.06;5110032;28;20054;-75
2022/09/30 07:30:55;;;;;;;10.52;9.20;;;;;;;10.61;84.41;99876.78;5110092;28;20503;-70
2022/09/30 07:33:43;;;;;;;12.85;9.20;;;;;;;10.81;84.84;99908.34;5111384;28;20135;-74
2022/09/30 07:36:11;;;;;;;13.95;10.15;;;;;;;10.94;84.75;99913.78;5105472;28;20053;-75
2022/09/30 07:38:40;;;;;;;34.40;11.23;;;;;;;11.11;81.84;99914.56;5113046;28;20497;-73
2022/09/30 07:41:10;;;;;;;11.45;9.32;;;;;;;11.28;82.14;99915.41;5114322;28;20410;-72
2022/09/30 07:43:40;;;;;;;12.35;9.48;;;;;;;11.38;81.44;99911.25;5113506;28;20044;-73
2022/09/30 07:46:11;;;;;;;13.25;8.93;;;;;;;11.43;80.30;99925.97;5114111;28;20246;-73
2022/09/30 07:48:49;;;;;;;11.73;9.23;;;;;;;11.43;80.57;99927.75;5113662;28;20051;-72
2022/09/30 07:51:34;;;;;;;11.70;9.30;;;;;;;11.39;80.08;99924.44;5109220;28;20468;-75
2022/09/30 07:54:06;;;;;;;13.18;9.07;;;;;;;11.43;79.32;99925.97;5113677;28;20078;-73
2022/09/30 07:56:37;;;;;;;10.88;9.15;;;;;;;11.39;79.21;99920.91;5113307;28;20047;-74
2022/09/30 07:59:24;;;;;;;13.98;9.98;;;;;;;11.33;79.43;99931.91;5111240;28;20066;-71
2022/09/30 08:01:51;;;;;;;10.68;9.02;;;;;;;11.31;80.19;99936.44;5113203;28;20176;-73
2022/09/30 08:04:20;;;;;;;11.60;9.10;;;;;;;11.38;79.70;99935.97;5113290;28;20051;-72
2022/09/30 08:06:49;;;;;;;9.98;8.90;;;;;;;11.38;78.95;99941.28;5111079;28;20510;-74
2022/09/30 08:09:18;;;;;;;11.10;8.43;;;;;;;11.39;78.76;99948.28;5113413;28;20056;-70
2022/09/30 08:11:45;;;;;;;11.40;8.18;;;;;;;11.45;79.05;99958.56;5113364;28;20058;-73
2022/09/30 08:14:17;;;;;;;10.50;8.40;;;;;;;11.63;77.69;99956.63;5113277;28;20043;-78
2022/09/30 08:16:44;;;;;;;10.15;8.15;;;;;;;11.84;77.32;99958.03;5112852;28;20039;-77
2022/09/30 08:19:16;;;;;;;10.13;7.22;;;;;;;12.10;75.59;99956.50;5111620;28;20139;-71
2022/09/30 08:21:44;;;;;;;9.63;8.10;;;;;;;12.24;73.52;99961.84;5113447;28;20052;-74
2022/09/30 08:24:11;;;;;;;9.85;7.50;;;;;;;12.16;73.87;99961.44;5103703;28;20044;-73
2022/09/30 08:26:38;;;;;;;8.95;7.95;;;;;;;11.91;74.58;99955.91;5112195;28;20436;-75
2022/09/30 08:29:05;;;;;;;9.20;8.30;;;;;;;11.69;75.80;99955.41;5113401;28;20043;-74
2022/09/30 08:31:32;;;;;;;9.20;8.10;;;;;;;11.38;77.12;99961.63;5112702;28;20387;-74
2022/09/30 08:33:59;;;;;;;11.23;8.98;;;;;;;11.21;78.46;99966.09;5112866;28;20048;-72
2022/09/30 08:36:26;;;;;;;10.02;8.82;;;;;;;11.08;78.92;99966.88;5112441;28;20138;-71
2022/09/30 08:38:54;;;;;;;12.45;9.40;;;;;;;10.97;80.48;99977.22;5112343;28;20048;-72
2022/09/30 08:42:08;;;;;;;11.27;8.98;;;;;;;10.89;81.79;99978.47;5111208;28;20452;-71
2022/09/30 08:45:12;;;;;;;14.43;8.98;;;;;;;11.01;82.21;99984.06;5111413;28;20057;-72
2022/09/30 08:48:03;;;;;;;11.82;9.40;;;;;;;11.04;81.71;99968.81;5112768;28;20047;-73
2022/09/30 08:50:39;;;;;;;12.07;8.80;;;;;;;11.13;82.63;99972.78;5107233;28;20048;-72
2022/09/30 08:53:14;;;;;;;11.63;8.70;;;;;;;11.20;81.07;99968.81;5111961;28;20452;-72
2022/09/30 08:55:44;;;;;;;10.93;8.45;;;;;;;11.24;81.61;99970.38;5107667;28;20050;-75
2022/09/30 08:58:25;;;;;;;10.95;8.20;;;;;;;11.34;80.87;99974.19;5107301;28;20433;-72
2022/09/30 09:00:56;;;;;;;11.45;7.80;;;;;;;11.39;80.30;99964.19;5110219;28;20174;-73
2022/09/30 09:03:28;;;;;;;9.25;7.05;;;;;;;11.49;80.64;99962.72;5111620;28;20048;-71
2022/09/30 09:06:15;;;;;;;11.30;7.93;;;;;;;11.50;79.79;99943.22;5111654;28;20120;-72
2022/09/30 09:09:09;;;;;;;11.48;7.28;;;;;;;11.68;80.83;99966.97;5112009;28;20055;-71
2022/09/30 09:12:11;;;;;;;8.02;7.22;;;;;;;11.82;79.50;99973.19;5104699;28;20501;-72
2022/09/30 09:14:59;;;;;;;11.18;8.05;;;;;;;11.84;78.55;99976.63;5062021;28;20058;-73
2022/09/30 09:17:54;;;;;;;9.80;8.43;;;;;;;11.77;79.41;99969.13;5106492;28;20113;-74
2022/09/30 09:21:08;;;;;;;13.40;8.02;;;;;;;11.73;79.52;99967.56;5111053;28;20061;-76
2022/09/30 09:23:35;;;;;;;11.45;7.70;;;;;;;11.71;79.40;99961.47;5111330;28;20438;-74
2022/09/30 09:26:03;;;;;;;15.27;7.78;;;;;;;11.80;79.75;99969.81;5111650;28;20047;-74
2022/09/30 09:28:36;;;;;;;13.90;8.30;;;;;;;11.77;79.05;99945.25;5110416;28;20035;-73
2022/09/30 09:31:04;;;;;;;14.25;8.27;;;;;;;11.90;78.54;99968.31;5111083;28;20075;-73
2022/09/30 09:33:38;;;;;;;12.75;8.23;;;;;;;11.97;78.51;99976.75;5111083;28;20139;-74
2022/09/30 09:36:17;;;;;;;11.27;7.85;;;;;;;12.07;78.38;99972.63;5111418;28;20112;-73
2022/09/30 09:39:08;;;;;;;10.18;8.07;;;;;;;12.12;76.54;99954.59;5110873;28;20056;-75
2022/09/30 09:41:47;;;;;;;11.52;8.30;;;;;;;12.23;76.40;99970.75;5109727;28;20062;-76
2022/09/30 09:44:32;;;;;;;10.45;7.82;;;;;;;12.37;76.37;99967.25;5109828;28;20046;-71
2022/09/30 09:47:12;;;;;;;11.68;7.57;;;;;;;12.59;75.97;99972.94;5109289;28;20518;-72
2022/09/30 09:49:45;;;;;;;10.93;7.78;;;;;;;12.74;76.18;99979.13;5112046;28;20104;-72
2022/09/30 09:52:11;;;;;;;13.45;7.43;;;;;;;12.93;75.60;99977.00;5111058;28;20047;-72
2022/09/30 09:54:49;;;;;;;14.07;8.15;;;;;;;13.12;73.38;99966.06;5110388;28;20480;-70
2022/09/30 09:57:23;;;;;;;13.77;7.63;;;;;;;13.27;71.61;99972.22;5098639;28;20126;-73
2022/09/30 10:03:15;;;;;;;12.98;7.88;;;;;;;13.18;71.99;99946.22;5110349;28;20404;-77
2022/09/30 10:05:41;;;;;;;9.98;7.00;;;;;;;13.35;70.97;99969.94;5110995;28;20126;-73
2022/09/30 10:08:13;;;;;;;10.57;6.60;;;;;;;13.50;70.56;99976.06;5110119;28;20040;-72
2022/09/30 10:10:51;;;;;;;10.13;7.00;;;;;;;13.71;69.88;99977.28;5110313;28;20194;-73
2022/09/30 10:13:43;;;;;;;14.07;7.60;;;;;;;13.69;68.37;99958.75;5110362;28;20061;-73
2022/09/30 10:16:36;;;;;;;11.00;7.53;;;;;;;13.85;68.18;99968.41;5090982;28;20376;-73
2022/09/30 10:19:17;;;;;;;15.02;7.97;;;;;;;13.97;67.02;99976.41;5109127;28;20044;-78
2022/09/30 10:21:44;;;;;;;11.13;6.88;;;;;;;13.93;67.42;99966.06;5110819;28;20556;-72
2022/09/30 10:24:27;;;;;;;11.50;6.45;;;;;;;14.05;66.43;99965.22;5101518;28;20046;-71
2022/09/30 10:26:54;;;;;;;12.90;7.05;;;;;;;14.27;65.40;99968.13;5110212;28;20139;-73
2022/09/30 10:29:30;;;;;;;9.95;6.13;;;;;;;14.33;64.89;99959.69;5110420;28;20522;-71
2022/09/30 10:32:05;;;;;;;7.90;5.90;;;;;;;14.51;63.43;99962.06;5110306;28;20104;-71
2022/09/30 10:34:35;;;;;;;8.57;5.40;;;;;;;14.59;62.61;99952.59;5105557;28;20510;-72
2022/09/30 10:37:15;;;;;;;8.30;6.18;;;;;;;14.83;62.11;99968.66;5110060;28;20135;-75
2022/09/30 10:39:50;;;;;;;10.20;6.80;;;;;;;14.72;61.16;99968.56;5109592;28;20246;-70
2022/09/30 10:42:22;;;;;;;7.78;5.80;;;;;;;14.34;61.28;99934.75;5110145;28;20090;-76
2022/09/30 10:44:56;;;;;;;9.32;5.82;;;;;;;14.34;62.01;99948.09;5110263;28;20051;-75
2022/09/30 10:47:25;;;;;;;8.15;5.18;;;;;;;14.55;62.54;99952.91;5110065;28;20453;-73
2022/09/30 10:49:54;;;;;;;15.52;9.18;;;;;;;14.81;60.18;99959.06;5106985;28;20072;-72
2022/09/30 10:52:27;;;;;;;6.30;5.10;;;;;;;15.02;58.90;99961.03;5104465;28;20066;-71
2022/09/30 10:54:57;;;;;;;6.50;4.20;;;;;;;15.04;57.20;99932.44;5108770;28;20173;-72
2022/09/30 10:57:35;;;;;;;6.65;4.00;;;;;;;15.24;56.80;99960.34;5109303;28;20048;-68
2022/09/30 11:00:08;;;;;;;9.20;4.18;;;;;;;15.29;56.74;99952.84;5109488;28;20127;-70
2022/09/30 11:03:08;;;;;;;9.13;5.13;;;;;;;15.13;57.51;99930.06;5110008;28;20130;-75
2022/09/30 11:05:39;;;;;;;8.48;4.80;;;;;;;15.15;57.78;99938.81;5105234;28;20059;-73
2022/09/30 11:08:41;;;;;;;7.70;4.25;;;;;;;15.06;58.41;99943.88;5107457;28;20109;-73
2022/09/30 11:11:23;;;;;;;7.07;4.07;;;;;;;15.08;56.80;99949.09;5065496;28;20198;-71
2022/09/30 11:14:27;;;;;;;7.97;4.15;;;;;;;15.28;56.87;99947.63;5113576;28;20376;-75
2022/09/30 11:17:09;;;;;;;5.18;3.83;;;;;;;15.48;56.63;99941.66;5111402;28;20127;-71
2022/09/30 11:19:47;;;;;;;6.40;3.58;;;;;;;15.77;56.05;99939.50;5114671;28;20051;-71
2022/09/30 11:22:38;;;;;;;14.05;5.03;;;;;;;16.07;54.80;99941.66;5111993;28;20467;-75
2022/09/30 11:25:05;;;;;;;6.28;3.97;;;;;;;16.19;54.17;99940.75;5108788;28;20090;-71
2022/09/30 11:27:49;;;;;;;5.95;4.10;;;;;;;16.16;53.88;99935.63;5114694;28;20081;-75
2022/09/30 11:30:27;;;;;;;7.13;3.50;;;;;;;16.25;53.88;99940.25;5113869;28;20065;-73
2022/09/30 11:33:12;;;;;;;6.90;3.88;;;;;;;16.22;53.06;99937.81;5113852;28;20043;-69
2022/09/30 11:36:23;;;;;;;7.68;3.95;;;;;;;16.17;53.32;99932.00;5109016;28;20057;-72
2022/09/30 11:39:13;;;;;;;14.18;3.92;;;;;;;16.37;52.27;99933.94;5110314;28;20047;-70
2022/09/30 11:42:04;;;;;;;12.90;4.47;;;;;;;16.62;51.29;99934.69;5112868;28;20047;-73
2022/09/30 11:44:35;;;;;;;10.18;3.90;;;;;;;16.74;50.49;99926.56;5108026;28;20079;-70
2022/09/30 11:47:26;;;;;;;6.35;3.72;;;;;;;16.86;50.05;99930.09;5113344;28;20411;-72
2022/09/30 11:50:25;;;;;;;6.18;3.60;;;;;;;16.86;50.71;99927.41;5112566;28;20090;-75
2022/09/30 11:53:09;;;;;;;5.20;3.22;;;;;;;17.07;51.04;99933.72;5113068;28;20063;-73
2022/09/30 11:56:16;;;;;;;6.75;3.70;;;;;;;17.28;50.60;99938.31;5112797;28;20048;-72
2022/09/30 11:58:48;;;;;;;8.27;3.30;;;;;;;17.10;49.05;99941.50;5105844;27;20061;-73
2022/09/30 12:01:31;;;;;;;4.28;3.17;;;;;;;16.87;49.25;99949.66;5114117;28;20109;-72
2022/09/30 12:04:10;;;;;;;4.97;3.30;;;;;;;16.78;49.50;99945.91;5112816;28;20047;-71